Terminal Aerodrome Forecast
Issued by NWS Milwaukee/Sullivan, WI

Home | Current Version | Previous Version | Text Only | Print | Product List | Glossary On
Versions: 1 2 3 4 5 6 7 8 9 10 11 12 13 14 15 16 17 18 19 20 21 22 23 24 25 26 27 28
574
FTUS43 KMKX 192338
TAFMSN
TAF
KMSN 192338Z 2000/2024 14004KT P6SM SCT250
     FM200900 13005KT 5SM BR SCT200
     FM201200 14006KT 1/2SM FG BKN003
     FM201600 15009KT 1SM BR OVC003
     FM201800 16011G21KT 2SM BR OVC008
     FM202100 16011G23KT 2SM -SHRA BR OVC010=

USA.gov is the U.S. government's official web portal to all federal, state and local government web resources and services.